Observations for OLBIA COSTA SMERALD, Italy (LIEO)

LIEO 230550Z 24012KT CAVOK 18/11 Q1017  
LIEO 230520Z 24009KT CAVOK 17/11 Q1017  
LIEO 230450Z 24010KT CAVOK 16/11 Q1017  
LIEO 230420Z 24011KT CAVOK 16/11 Q1017  
LIEO 230350Z 24010KT CAVOK 15/10 Q1016  
LIEO 230320Z 24013KT CAVOK 16/10 Q1016  
LIEO 230250Z 24011KT CAVOK 15/10 Q1017  
LIEO 230220Z 24012KT CAVOK 16/09 Q1017  
LIEO 230150Z 24008KT CAVOK 15/09 Q1017  
LIEO 230120Z 23007KT CAVOK 15/09 Q1017  
LIEO 230050Z 23007KT CAVOK 15/09 Q1017  
LIEO 230020Z 25004KT CAVOK 15/08 Q1017  
LIEO 222350Z VRB01KT CAVOK 14/09 Q1017  
LIEO 222320Z 23005KT CAVOK 14/10 Q1017  
LIEO 222250Z 24007KT CAVOK 15/10 Q1017  
LIEO 222220Z 20006KT CAVOK 16/10 Q1017  
LIEO 222150Z 24010KT CAVOK 17/10 Q1017  
LIEO 222120Z 25011KT CAVOK 17/10 Q1017  
LIEO 222050Z 24010KT CAVOK 17/10 Q1017  
LIEO 222020Z 25011KT CAVOK 18/09 Q1017  
LIEO 221950Z 25009KT CAVOK 18/08 Q1016  
LIEO 221920Z 26007KT CAVOK 19/08 Q1016  
LIEO 221850Z 26011KT CAVOK 21/07 Q1016  
LIEO 221820Z 27012KT CAVOK 21/07 Q1016  
LIEO 221750Z 27015KT CAVOK 22/07 Q1015  
LIEO 221720Z 27013KT 230V300 CAVOK 23/07 Q1015  
LIEO 221650Z 27015G25KT 9999 FEW025 23/07 Q1015 
LIEO 221620Z 27014KT 240V300 9999 FEW025 24/07 Q1015
LIEO 221550Z VRB08KT 9999 FEW025 25/08 Q1015
LIEO 221520Z 06008KT 040V100 9999 SCT025 23/11 Q1015
LIEO 221450Z 08009KT 030V120 9999 SCT025 23/11 Q1015
LIEO 221420Z 09008KT 040V140 9999 SCT025 23/11 Q1016
LIEO 221350Z 08011KT 9999 SCT025 23/12 Q1016
LIEO 221320Z 11008KT 080V160 9999 SCT025 24/12 Q1016
LIEO 221250Z VRB06KT 9999 SCT025 25/10 Q1016
LIEO 221220Z 28012KT 260V320 9999 FEW025 26/09 Q1016
LIEO 221150Z 28010KT 260V320 CAVOK 25/09 Q1016  
LIEO 221120Z 24010KT 200V300 CAVOK 25/10 Q1016  
LIEO 221050Z 22011KT 180V250 CAVOK 24/09 Q1016  
LIEO 221020Z 24013KT 200V270 CAVOK 24/10 Q1016  
LIEO 220950Z 22014KT CAVOK 23/09 Q1016  
LIEO 220920Z 23014KT CAVOK 23/09 Q1016  
LIEO 220850Z 22015KT 190V250 CAVOK 22/09 Q1016  
LIEO 220820Z 23015KT CAVOK 21/08 Q1016  
LIEO 220750Z 23016KT CAVOK 20/07 Q1016  
LIEO 220720Z 24012KT CAVOK 20/08 Q1016  
LIEO 220650Z 25011KT CAVOK 19/08 Q1016  
LIEO 220620Z 24013KT CAVOK 18/08 Q1016  
LIEO 220550Z 25012KT CAVOK 16/08 Q1016  
LIEO 220520Z 24009KT CAVOK 15/09 Q1016